Time;durP1;ratioP1;P1;durP2;ratioP2;P2;SDS_P1;SDS_P2;PMS_P1;PMS_P2;Temp;Humidity;BMP_temperature;BMP_pressure;BME280_temperature;BME280_humidity;BME280_pressure;Samples;Min_cycle;Max_cycle;Signal;HPM_P1;HPM_P2
2022/11/27 00:00:54;;;;;;;19.43;13.07;;;;;;;4.19;99.01;102085.63;5019047;28;20234;-82
2022/11/27 00:03:21;;;;;;;22.00;12.87;;;;;;;4.18;99.84;102089.16;5022162;28;20210;-83
2022/11/27 00:05:57;;;;;;;20.10;13.43;;;;;;;4.19;99.98;102095.31;5017783;28;20199;-84
2022/11/27 00:08:25;;;;;;;18.83;13.23;;;;;;;4.19;99.78;102093.53;5017436;28;20210;-84
2022/11/27 00:10:51;;;;;;;21.90;12.47;;;;;;;4.22;100.00;102097.03;5020032;28;20234;-84
2022/11/27 00:13:18;;;;;;;17.57;11.10;;;;;;;4.24;100.00;102088.22;5019322;28;20251;-84
2022/11/27 00:15:45;;;;;;;20.20;13.23;;;;;;;4.27;100.00;102087.31;5020079;28;21657;-84
2022/11/27 00:18:11;;;;;;;16.03;11.13;;;;;;;4.31;100.00;102088.97;5022524;28;20205;-82
2022/11/27 00:20:38;;;;;;;19.87;11.87;;;;;;;4.33;100.00;102089.81;5017519;28;20795;-83
2022/11/27 00:23:06;;;;;;;23.50;12.37;;;;;;;4.33;100.00;102087.19;5016214;28;20203;-84
2022/11/27 00:25:32;;;;;;;21.20;13.00;;;;;;;4.35;100.00;102095.94;5016017;28;20234;-84
2022/11/27 00:27:59;;;;;;;22.27;11.33;;;;;;;4.33;100.00;102081.91;5016506;28;20215;-84
2022/11/27 00:30:25;;;;;;;18.23;11.97;;;;;;;4.34;100.00;102083.66;5024188;28;20601;-85
2022/11/27 00:32:52;;;;;;;21.17;11.13;;;;;;;4.34;100.00;102073.13;5022837;28;20234;-84
2022/11/27 00:35:18;;;;;;;16.63;10.80;;;;;;;4.38;100.00;102069.53;5024557;28;20211;-85
2022/11/27 00:37:44;;;;;;;15.23;11.90;;;;;;;4.37;100.00;102058.13;5019444;28;20222;-84
2022/11/27 00:40:13;;;;;;;15.13;10.53;;;;;;;4.37;100.00;102054.59;5021684;28;20199;-84
2022/11/27 00:42:39;;;;;;;19.03;11.23;;;;;;;4.37;100.00;102051.97;5024125;28;20230;-85
2022/11/27 00:45:07;;;;;;;19.03;12.37;;;;;;;4.38;100.00;102053.72;5023710;28;20215;-84
2022/11/27 00:47:33;;;;;;;18.83;11.73;;;;;;;4.36;100.00;102043.19;5020716;28;20200;-83
2022/11/27 00:50:00;;;;;;;18.23;11.43;;;;;;;4.35;100.00;102040.56;5023017;28;20209;-84
2022/11/27 00:52:26;;;;;;;17.03;11.37;;;;;;;4.33;100.00;102048.50;5024959;28;20226;-84
2022/11/27 00:54:53;;;;;;;14.27;9.97;;;;;;;4.31;100.00;102052.06;5022369;28;20207;-84
2022/11/27 00:57:20;;;;;;;16.40;11.43;;;;;;;4.27;100.00;102043.34;5024712;28;20229;-85
2022/11/27 00:59:47;;;;;;;15.27;10.10;;;;;;;4.24;100.00;102037.22;5022631;28;20199;-85
2022/11/27 01:02:13;;;;;;;16.43;10.07;;;;;;;4.16;100.00;102032.94;5023062;28;20234;-85
2022/11/27 01:04:40;;;;;;;15.47;10.30;;;;;;;4.11;100.00;102026.00;5022421;28;20220;-86
2022/11/27 01:07:06;;;;;;;14.50;10.17;;;;;;;4.07;100.00;102027.81;5024138;28;20206;-83
2022/11/27 01:09:33;;;;;;;16.47;10.67;;;;;;;4.04;99.70;102025.22;5018181;28;20221;-85
2022/11/27 01:11:59;;;;;;;16.70;11.23;;;;;;;4.01;99.81;102032.28;5019270;28;20586;-85
2022/11/27 01:14:27;;;;;;;14.03;10.60;;;;;;;3.98;100.00;102035.84;5020423;28;20203;-84
2022/11/27 01:16:54;;;;;;;15.50;10.30;;;;;;;3.96;100.00;102036.75;5021866;28;20609;-85
2022/11/27 01:19:20;;;;;;;15.87;9.67;;;;;;;3.95;99.51;102024.47;5024279;28;20214;-85
2022/11/27 01:21:47;;;;;;;15.23;11.63;;;;;;;3.93;99.42;102024.50;5025909;28;20242;-85
2022/11/27 01:24:15;;;;;;;15.03;10.43;;;;;;;3.89;99.24;102021.94;5019898;28;20210;-83
2022/11/27 01:26:42;;;;;;;15.97;10.07;;;;;;;3.87;99.08;102024.59;5026235;28;20209;-84
2022/11/27 01:29:09;;;;;;;14.87;10.57;;;;;;;3.86;99.70;102016.69;5029442;28;20210;-83
2022/11/27 01:31:38;;;;;;;15.63;10.17;;;;;;;3.83;99.12;102007.06;5020608;28;20280;-83
2022/11/27 01:34:09;;;;;;;15.53;10.43;;;;;;;3.80;98.63;102009.75;5023174;28;20199;-83
2022/11/27 01:36:36;;;;;;;15.43;10.33;;;;;;;3.75;98.67;101999.28;5026919;28;20226;-83
2022/11/27 01:39:02;;;;;;;13.73;10.27;;;;;;;3.70;98.90;101993.19;5022782;28;20649;-84
2022/11/27 01:41:31;;;;;;;16.73;10.80;;;;;;;3.68;98.72;101999.38;5025444;28;20238;-83
2022/11/27 01:43:59;;;;;;;15.97;10.53;;;;;;;3.63;97.90;101995.91;5024787;28;20206;-82
2022/11/27 01:46:34;;;;;;;18.27;11.03;;;;;;;3.58;98.05;101998.63;5031814;28;20226;-83
2022/11/27 01:49:20;;;;;;;19.47;10.70;;;;;;;3.55;98.38;102003.94;5027748;28;20201;-83
2022/11/27 01:51:50;;;;;;;19.57;11.07;;;;;;;3.54;98.17;101998.69;5031669;28;20240;-84
2022/11/27 01:54:20;;;;;;;18.57;11.17;;;;;;;3.50;97.69;102000.50;5027476;28;20202;-83
2022/11/27 01:56:50;;;;;;;18.70;12.17;;;;;;;3.47;97.54;101996.13;5037655;28;20225;-83
2022/11/27 01:59:18;;;;;;;23.20;12.23;;;;;;;3.46;97.53;101997.00;5037260;28;20210;-83
2022/11/27 02:01:44;;;;;;;19.20;12.17;;;;;;;3.46;97.51;101993.50;5029194;28;20226;-83
2022/11/27 02:04:12;;;;;;;22.97;12.73;;;;;;;3.45;97.80;101984.72;5033573;28;20211;-83
2022/11/27 02:06:39;;;;;;;24.17;12.80;;;;;;;3.48;98.13;101989.97;5027223;28;20268;-83
2022/11/27 02:09:05;;;;;;;24.23;13.40;;;;;;;3.51;98.45;101980.28;5032088;28;20205;-83
2022/11/27 02:11:40;;;;;;;26.10;14.40;;;;;;;3.54;98.85;101977.63;5034784;28;20740;-83
2022/11/27 02:14:13;;;;;;;24.80;13.67;;;;;;;3.57;99.17;101974.94;5025616;28;20203;-83
2022/11/27 02:16:48;;;;;;;20.63;12.60;;;;;;;3.62;98.76;101986.28;5033091;28;20695;-84
2022/11/27 02:19:29;;;;;;;27.87;14.10;;;;;;;3.64;99.54;101989.75;5039597;28;20209;-83
2022/11/27 02:22:03;;;;;;;22.80;12.80;;;;;;;3.64;99.19;101989.75;5031981;28;20226;-83
2022/11/27 02:24:42;;;;;;;21.33;12.80;;;;;;;3.63;99.97;101982.75;5036194;28;20202;-83
2022/11/27 02:27:27;;;;;;;28.20;14.33;;;;;;;3.64;100.00;101982.72;5038102;28;20237;-84
2022/11/27 02:30:00;;;;;;;21.63;12.30;;;;;;;3.65;99.83;101986.25;5037109;28;20207;-83
2022/11/27 02:32:35;;;;;;;22.97;12.77;;;;;;;3.66;99.94;101974.81;5036763;28;20236;-84
2022/11/27 02:35:09;;;;;;;23.10;12.57;;;;;;;3.67;99.82;101969.53;5041315;28;20198;-83
2022/11/27 02:37:43;;;;;;;29.63;13.70;;;;;;;3.69;99.95;101972.13;5043691;28;20217;-83
2022/11/27 02:40:13;;;;;;;25.30;13.33;;;;;;;3.69;99.94;101961.59;5031731;28;20300;-84
2022/11/27 02:42:44;;;;;;;24.23;13.00;;;;;;;3.69;99.79;101961.59;5028353;28;20241;-84
2022/11/27 02:45:16;;;;;;;20.33;12.83;;;;;;;3.68;100.00;101951.94;5028783;28;20205;-83
2022/11/27 02:47:46;;;;;;;22.50;12.70;;;;;;;3.69;100.00;101951.94;5033026;28;20208;-83
2022/11/27 02:50:18;;;;;;;25.80;12.53;;;;;;;3.70;100.00;101944.91;5031087;28;20218;-83
2022/11/27 02:52:45;;;;;;;23.90;13.27;;;;;;;3.69;100.00;101937.88;5031491;28;20225;-83
2022/11/27 02:55:16;;;;;;;22.33;11.97;;;;;;;3.69;100.00;101929.97;5039818;28;20206;-83
2022/11/27 02:57:45;;;;;;;26.57;12.57;;;;;;;3.69;100.00;101924.72;5034834;28;20213;-84
2022/11/27 03:00:14;;;;;;;18.93;11.33;;;;;;;3.68;100.00;101928.25;5034396;28;20201;-83
2022/11/27 03:02:46;;;;;;;19.90;11.97;;;;;;;3.68;100.00;101929.09;5029353;28;20255;-83
2022/11/27 03:05:17;;;;;;;17.27;10.43;;;;;;;3.68;100.00;101933.50;5026278;28;20673;-83
2022/11/27 03:07:47;;;;;;;17.63;11.10;;;;;;;3.69;100.00;101928.22;5035759;28;20212;-83
2022/11/27 03:10:19;;;;;;;17.33;10.40;;;;;;;3.70;100.00;101922.06;5030764;28;20218;-83
2022/11/27 03:12:46;;;;;;;15.20;9.87;;;;;;;3.70;99.80;101918.56;5030756;28;20226;-84
2022/11/27 03:15:14;;;;;;;17.87;10.03;;;;;;;3.71;100.00;101917.66;5038173;28;20198;-84
2022/11/27 03:17:51;;;;;;;17.87;9.23;;;;;;;3.72;100.00;101924.69;5027898;28;20233;-83
2022/11/27 03:20:22;;;;;;;15.27;9.30;;;;;;;3.70;99.80;101910.66;5034929;28;20253;-83
2022/11/27 03:22:49;;;;;;;14.27;8.47;;;;;;;3.70;99.89;101913.28;5032219;28;20234;-84
2022/11/27 03:25:16;;;;;;;16.57;8.73;;;;;;;3.70;100.00;101908.00;5027279;28;20696;-83
2022/11/27 03:27:46;;;;;;;13.03;8.50;;;;;;;3.69;99.58;101895.72;5034394;28;20218;-83
2022/11/27 03:30:15;;;;;;;12.77;8.23;;;;;;;3.68;99.54;101901.91;5027961;28;20198;-83
2022/11/27 03:32:41;;;;;;;12.53;8.27;;;;;;;3.67;99.58;101902.78;5033515;28;20236;-84
2022/11/27 03:35:11;;;;;;;9.53;7.27;;;;;;;3.68;99.31;101907.16;5084904;22;20228;-74
2022/11/27 03:37:37;;;;;;;10.43;7.30;;;;;;;3.67;100.00;101908.06;5079456;28;20216;-73
2022/11/27 03:40:06;;;;;;;12.90;7.57;;;;;;;3.66;100.00;101908.94;5086606;28;20243;-75
2022/11/27 03:42:43;;;;;;;15.30;7.90;;;;;;;3.66;99.76;101907.19;5086935;28;20196;-74
2022/11/27 03:45:19;;;;;;;9.90;5.93;;;;;;;3.68;99.93;101912.44;5086293;28;20227;-75
2022/11/27 03:47:56;;;;;;;10.67;7.07;;;;;;;3.66;99.57;101908.94;5076653;22;20221;-82
2022/11/27 03:50:41;;;;;;;10.37;7.80;;;;;;;3.64;99.02;101911.59;5069820;28;20557;-83
2022/11/27 03:53:16;;;;;;;10.43;7.20;;;;;;;3.63;99.70;101911.63;5067669;28;20208;-82
2022/11/27 03:55:49;;;;;;;16.80;9.03;;;;;;;3.62;99.51;101910.75;5068972;28;20214;-83
2022/11/27 03:58:23;;;;;;;16.67;8.47;;;;;;;3.61;99.35;101906.38;5065699;28;20231;-83
2022/11/27 04:00:53;;;;;;;17.13;8.57;;;;;;;3.61;99.24;101913.41;5059332;28;20213;-82
2022/11/27 04:03:24;;;;;;;11.83;7.17;;;;;;;3.65;99.02;101923.00;5069740;28;21061;-82
2022/11/27 04:05:51;;;;;;;11.67;6.90;;;;;;;3.65;98.71;101925.66;5073558;28;20247;-82
2022/11/27 04:08:18;;;;;;;12.53;6.77;;;;;;;3.66;98.76;101927.38;5074214;28;20212;-82
2022/11/27 04:10:44;;;;;;;11.73;7.30;;;;;;;3.67;98.67;101921.22;5075077;28;20204;-82
2022/11/27 04:13:10;;;;;;;13.03;7.97;;;;;;;3.69;98.64;101927.34;5074455;28;20554;-81
2022/11/27 04:15:37;;;;;;;10.10;6.30;;;;;;;3.67;98.05;101923.88;5068042;28;20220;-82
2022/11/27 04:18:05;;;;;;;11.63;6.50;;;;;;;3.68;98.68;101920.34;5070575;28;20221;-82
2022/11/27 04:20:32;;;;;;;9.37;6.53;;;;;;;3.69;98.53;101916.81;5075447;28;20201;-82
2022/11/27 04:22:58;;;;;;;10.00;6.30;;;;;;;3.68;98.60;101908.03;5065333;28;20213;-83
2022/11/27 04:25:25;;;;;;;12.80;6.43;;;;;;;3.69;97.79;101906.28;5073350;28;20232;-83
2022/11/27 04:27:52;;;;;;;9.37;6.40;;;;;;;3.65;97.58;101897.53;5070715;28;20208;-83
2022/11/27 04:30:19;;;;;;;17.20;7.53;;;;;;;3.66;98.29;101893.13;5075553;28;20207;-83
2022/11/27 04:32:45;;;;;;;9.93;6.20;;;;;;;3.64;97.70;101890.53;5071492;28;20201;-83
2022/11/27 04:35:14;;;;;;;8.93;5.47;;;;;;;3.64;98.14;101894.94;5068618;28;20226;-82
2022/11/27 04:37:40;;;;;;;9.30;6.03;;;;;;;3.64;96.95;101893.16;5072302;28;20229;-82
2022/11/27 04:40:08;;;;;;;8.70;6.17;;;;;;;3.62;97.80;101881.78;5071843;28;20223;-83
2022/11/27 04:42:34;;;;;;;10.73;5.23;;;;;;;3.62;96.86;101886.16;5073251;28;20209;-82
2022/11/27 04:45:01;;;;;;;8.83;5.67;;;;;;;3.61;97.57;101885.28;5065315;28;20236;-82
2022/11/27 04:47:27;;;;;;;9.90;6.23;;;;;;;3.65;97.36;101891.41;5072792;28;20212;-82
2022/11/27 04:49:54;;;;;;;9.57;6.17;;;;;;;3.66;96.71;101874.69;5063576;28;20213;-82
2022/11/27 04:52:21;;;;;;;7.73;5.07;;;;;;;3.65;96.87;101871.19;5072493;28;20696;-83
2022/11/27 04:54:48;;;;;;;11.93;5.20;;;;;;;3.68;97.13;101876.41;5075320;28;20616;-82
2022/11/27 04:57:14;;;;;;;9.47;6.00;;;;;;;3.71;96.82;101871.09;5068700;28;20228;-82
2022/11/27 04:59:41;;;;;;;8.60;5.27;;;;;;;3.71;96.40;101872.88;5065752;28;20214;-83
2022/11/27 05:02:07;;;;;;;9.60;5.43;;;;;;;3.71;96.84;101868.47;5069953;28;20216;-82
2022/11/27 05:04:34;;;;;;;9.53;5.60;;;;;;;3.72;96.66;101869.34;5069214;28;20216;-82
2022/11/27 05:07:00;;;;;;;8.67;5.37;;;;;;;3.74;97.08;101860.53;5069769;28;20204;-83
2022/11/27 05:09:28;;;;;;;8.57;5.07;;;;;;;3.75;96.28;101848.22;5073089;28;20208;-83
2022/11/27 05:11:55;;;;;;;12.27;5.60;;;;;;;3.75;96.70;101849.09;5068712;28;20233;-82
2022/11/27 05:14:27;;;;;;;8.87;5.57;;;;;;;3.77;96.73;101851.69;5070347;28;20226;-83
2022/11/27 05:16:55;;;;;;;10.43;6.20;;;;;;;3.79;95.78;101847.25;5069784;28;20236;-83
2022/11/27 05:19:23;;;;;;;7.60;5.23;;;;;;;3.79;96.58;101849.88;5074119;28;20574;-81
2022/11/27 05:21:51;;;;;;;9.37;5.70;;;;;;;3.80;96.00;101841.09;5073505;28;20663;-82
2022/11/27 05:24:19;;;;;;;10.37;5.97;;;;;;;3.81;96.06;101848.09;5067608;28;20252;-83
2022/11/27 05:26:47;;;;;;;8.63;5.90;;;;;;;3.81;96.35;101854.25;5067782;28;20212;-82
2022/11/27 05:29:14;;;;;;;10.90;6.23;;;;;;;3.84;96.30;101848.06;5062069;28;20555;-83
2022/11/27 05:31:42;;;;;;;11.37;6.13;;;;;;;3.85;96.44;101836.63;5071580;28;20673;-82
2022/11/27 05:34:10;;;;;;;11.77;6.20;;;;;;;3.88;96.08;101833.06;5069173;28;20230;-83
2022/11/27 05:36:36;;;;;;;10.43;6.20;;;;;;;3.87;96.20;101823.41;5059787;28;20198;-83
2022/11/27 05:39:05;;;;;;;14.37;6.63;;;;;;;3.87;95.74;101808.47;5063764;28;20231;-83
2022/11/27 05:41:32;;;;;;;13.20;6.60;;;;;;;3.93;96.33;101808.38;5065135;28;20214;-82
2022/11/27 05:44:00;;;;;;;9.40;5.83;;;;;;;3.94;96.59;101802.19;5068048;28;20236;-82
2022/11/27 05:46:27;;;;;;;10.10;6.33;;;;;;;3.96;95.90;101805.66;5065468;28;20590;-81
2022/11/27 05:48:53;;;;;;;9.73;6.50;;;;;;;3.94;96.10;101804.81;5064394;28;20250;-82
2022/11/27 05:51:20;;;;;;;11.90;6.43;;;;;;;3.94;96.20;101798.72;5070923;28;20201;-82
2022/11/27 05:53:47;;;;;;;13.43;6.73;;;;;;;3.91;96.25;101794.38;5065903;28;20699;-82
2022/11/27 05:56:15;;;;;;;16.17;6.87;;;;;;;3.91;95.63;101789.09;5074960;28;20697;-82
2022/11/27 05:58:44;;;;;;;8.40;5.90;;;;;;;3.93;95.38;101789.94;5067343;28;20625;-82
2022/11/27 06:01:14;;;;;;;8.77;5.80;;;;;;;3.94;95.74;101788.16;5064065;28;20718;-82
2022/11/27 06:03:41;;;;;;;9.97;5.60;;;;;;;3.92;95.31;101782.94;5072677;28;20223;-83
2022/11/27 06:06:09;;;;;;;9.47;6.80;;;;;;;3.91;95.43;101781.19;5065663;28;20201;-83
2022/11/27 06:08:36;;;;;;;9.87;6.40;;;;;;;3.90;95.44;101781.22;5066688;28;20200;-83
2022/11/27 06:11:06;;;;;;;10.43;6.50;;;;;;;3.89;95.53;101775.06;5072476;28;20205;-83
2022/11/27 06:13:33;;;;;;;11.10;6.30;;;;;;;3.92;95.38;101777.66;5066280;28;20220;-82
2022/11/27 06:16:04;;;;;;;9.87;6.50;;;;;;;3.91;95.69;101770.66;5073640;28;20204;-83
2022/11/27 06:18:32;;;;;;;10.13;6.50;;;;;;;3.90;95.21;101773.31;5069187;28;20237;-83
2022/11/27 06:20:59;;;;;;;13.10;7.10;;;;;;;3.88;95.14;101767.19;5070357;28;20896;-83
2022/11/27 06:23:25;;;;;;;10.57;7.30;;;;;;;3.86;95.34;101763.72;5068609;28;20206;-84
2022/11/27 06:25:52;;;;;;;12.17;7.10;;;;;;;3.84;95.39;101766.38;5068738;28;20197;-82
2022/11/27 06:28:18;;;;;;;13.03;7.30;;;;;;;3.81;95.15;101772.56;5066678;28;20201;-83
2022/11/27 06:30:45;;;;;;;9.50;7.57;;;;;;;3.79;95.65;101773.47;5069075;28;20201;-83
2022/11/27 06:33:11;;;;;;;13.77;7.07;;;;;;;3.76;95.44;101770.91;5065905;28;20307;-83
2022/11/27 06:35:39;;;;;;;11.23;7.57;;;;;;;3.73;95.00;101768.34;5066085;28;20589;-83
2022/11/27 06:38:05;;;;;;;13.43;7.10;;;;;;;3.74;94.85;101783.25;5070661;28;20228;-83
2022/11/27 06:40:32;;;;;;;13.27;7.33;;;;;;;3.71;95.16;101775.38;5063965;28;20205;-83
2022/11/27 06:42:58;;;;;;;10.63;7.13;;;;;;;3.70;95.12;101771.88;5069184;28;20197;-83
2022/11/27 06:45:25;;;;;;;11.17;7.33;;;;;;;3.71;95.54;101780.66;5069122;28;20224;-83
2022/11/27 06:47:51;;;;;;;10.63;7.63;;;;;;;3.71;95.59;101776.25;5066696;28;20212;-83
2022/11/27 06:50:18;;;;;;;11.83;7.33;;;;;;;3.70;95.59;101777.16;5073681;28;20670;-83
2022/11/27 06:52:46;;;;;;;10.47;7.50;;;;;;;3.68;95.65;101772.81;5063769;28;20221;-84
2022/11/27 06:55:12;;;;;;;11.27;7.03;;;;;;;3.68;95.02;101778.06;5062961;28;20598;-83
2022/11/27 06:57:39;;;;;;;12.83;7.43;;;;;;;3.65;94.88;101765.81;5067736;28;20232;-82
2022/11/27 07:00:07;;;;;;;11.77;6.90;;;;;;;3.64;95.78;101771.09;5070540;28;20204;-83
2022/11/27 07:02:33;;;;;;;11.57;6.80;;;;;;;3.64;95.68;101773.75;5068965;28;20209;-82
2022/11/27 07:05:00;;;;;;;11.27;6.67;;;;;;;3.66;95.24;101783.38;5068267;28;20228;-83
2022/11/27 07:07:26;;;;;;;11.40;7.07;;;;;;;3.67;95.34;101778.97;5070393;28;20209;-83
2022/11/27 07:10:16;;;;;;;11.70;7.17;;;;;;;3.65;95.17;101789.53;5067587;28;20205;-85
2022/11/27 07:12:43;;;;;;;10.00;6.83;;;;;;;3.64;95.43;101786.91;5070209;28;20211;-83
2022/11/27 07:15:10;;;;;;;11.63;7.63;;;;;;;3.61;95.04;101779.94;5072794;28;20225;-83
2022/11/27 07:17:36;;;;;;;12.90;6.93;;;;;;;3.60;95.03;101782.59;5056012;28;20232;-83
2022/11/27 07:20:03;;;;;;;12.67;7.00;;;;;;;3.57;94.94;101775.63;5061294;28;20258;-85
2022/11/27 07:22:32;;;;;;;11.50;7.17;;;;;;;3.54;94.82;101773.03;5071781;28;20710;-82
2022/11/27 07:24:59;;;;;;;10.53;6.10;;;;;;;3.52;95.25;101766.94;5067802;28;20217;-83
2022/11/27 07:27:26;;;;;;;11.60;6.30;;;;;;;3.51;95.45;101773.09;5069846;28;20201;-83
2022/11/27 07:29:52;;;;;;;11.37;7.30;;;;;;;3.49;95.00;101765.22;5055895;28;20210;-84
2022/11/27 07:32:19;;;;;;;12.50;6.97;;;;;;;3.48;95.18;101766.09;5066824;28;20655;-83
2022/11/27 07:34:46;;;;;;;12.27;7.07;;;;;;;3.47;94.96;101760.84;5071592;28;20228;-83
2022/11/27 07:37:21;;;;;;;9.97;6.67;;;;;;;3.47;95.31;101767.00;5066587;28;20202;-85
2022/11/27 07:39:47;;;;;;;13.60;7.20;;;;;;;3.48;95.09;101766.09;5074932;28;20605;-83
2022/11/27 07:42:15;;;;;;;11.23;7.00;;;;;;;3.47;94.94;101760.84;5074988;28;20202;-83
2022/11/27 07:44:42;;;;;;;10.07;6.00;;;;;;;3.49;95.52;101757.31;5079603;28;20665;-83
2022/11/27 07:47:09;;;;;;;8.67;6.63;;;;;;;3.50;94.86;101750.28;5072873;28;20284;-82
2022/11/27 07:49:35;;;;;;;11.30;6.10;;;;;;;3.56;95.58;101749.31;5077473;28;20209;-84
2022/11/27 07:52:02;;;;;;;11.97;6.23;;;;;;;3.59;95.47;101746.59;5072889;28;20261;-82
2022/11/27 07:54:28;;;;;;;8.17;5.57;;;;;;;3.61;95.66;101744.81;5077599;28;20284;-82
2022/11/27 07:56:55;;;;;;;10.43;6.30;;;;;;;3.67;96.02;101742.94;5073621;28;20232;-83
2022/11/27 07:59:23;;;;;;;11.27;7.20;;;;;;;3.71;95.68;101741.13;5077026;28;20221;-84
2022/11/27 08:01:50;;;;;;;7.77;5.50;;;;;;;3.72;95.69;101724.44;5076945;28;20708;-82
2022/11/27 08:04:16;;;;;;;9.03;6.17;;;;;;;3.75;96.30;101735.78;5073048;28;20228;-82
2022/11/27 08:06:43;;;;;;;9.17;5.83;;;;;;;3.77;96.33;101727.84;5069995;28;20574;-81
2022/11/27 08:09:10;;;;;;;8.57;6.10;;;;;;;3.82;96.13;101724.22;5074486;28;20236;-84
2022/11/27 08:11:37;;;;;;;9.57;6.20;;;;;;;3.89;95.75;101722.34;5073495;28;20213;-84
2022/11/27 08:14:05;;;;;;;10.67;7.00;;;;;;;3.91;96.38;101727.59;5075688;28;20300;-84
2022/11/27 08:16:35;;;;;;;8.43;4.83;;;;;;;3.96;95.70;101717.81;5076435;28;20268;-83
2022/11/27 08:19:02;;;;;;;9.33;6.03;;;;;;;4.01;95.49;101721.25;5075646;28;20228;-82
2022/11/27 08:21:31;;;;;;;13.10;6.23;;;;;;;4.05;95.54;101728.22;5068947;28;20233;-82
2022/11/27 08:23:58;;;;;;;10.07;5.23;;;;;;;4.07;95.47;101732.56;5068041;28;20225;-81
2022/11/27 08:26:26;;;;;;;10.50;6.27;;;;;;;4.10;95.14;101737.78;5073642;28;20202;-81
2022/11/27 08:28:53;;;;;;;8.57;5.70;;;;;;;4.14;95.24;101739.44;5076497;28;20243;-81
2022/11/27 08:31:20;;;;;;;9.97;6.50;;;;;;;4.18;95.54;101740.25;5077799;28;20208;-82
2022/11/27 08:33:53;;;;;;;7.23;4.70;;;;;;;4.24;95.26;101734.00;5071300;28;20289;-82
2022/11/27 08:36:21;;;;;;;10.37;6.13;;;;;;;4.31;95.33;101740.84;5072507;28;20200;-82
2022/11/27 08:38:47;;;;;;;11.67;6.37;;;;;;;4.36;95.57;101739.88;5071253;28;20306;-82
2022/11/27 08:41:14;;;;;;;9.20;6.47;;;;;;;4.37;95.13;101735.47;5071659;28;20216;-82
2022/11/27 08:43:41;;;;;;;8.40;5.83;;;;;;;4.42;95.67;101734.47;5074371;28;20228;-81
2022/11/27 08:46:07;;;;;;;11.10;6.10;;;;;;;4.51;95.17;101734.28;5075301;28;20201;-80
2022/11/27 08:48:34;;;;;;;8.90;6.10;;;;;;;4.57;95.71;101733.28;5073593;28;20206;-80
2022/11/27 08:51:05;;;;;;;10.80;6.33;;;;;;;4.64;94.85;101721.72;5068914;28;20213;-81
2022/11/27 08:53:31;;;;;;;8.87;5.80;;;;;;;4.71;94.75;101720.66;5071419;28;20228;-84
2022/11/27 08:56:05;;;;;;;8.77;5.43;;;;;;;4.77;94.94;101712.63;5070325;28;20205;-84
2022/11/27 08:58:31;;;;;;;9.33;6.70;;;;;;;4.82;94.75;101712.53;5074438;28;20215;-84
2022/11/27 09:00:58;;;;;;;8.50;6.40;;;;;;;4.87;95.01;101702.69;5080990;28;20216;-84
2022/11/27 09:03:24;;;;;;;9.20;6.10;;;;;;;4.95;94.49;101710.44;5071937;28;20211;-83
2022/11/27 09:05:51;;;;;;;8.83;5.80;;;;;;;5.00;94.43;101700.66;5069122;28;20289;-85
2022/11/27 09:08:20;;;;;;;6.80;5.13;;;;;;;5.05;94.52;101698.75;5067646;28;20659;-85
2022/11/27 09:10:46;;;;;;;7.40;5.33;;;;;;;5.10;94.02;101703.03;5071440;28;20300;-85
2022/11/27 09:13:13;;;;;;;22.70;10.77;;;;;;;5.11;93.80;101699.50;5073916;28;20211;-84
2022/11/27 09:15:40;;;;;;;10.50;6.20;;;;;;;5.16;93.85;101694.97;5063630;28;20201;-84
2022/11/27 09:18:06;;;;;;;11.50;6.20;;;;;;;5.21;93.58;101692.19;5073921;28;20216;-85
2022/11/27 09:20:33;;;;;;;10.07;5.47;;;;;;;5.26;93.42;101685.03;5073569;28;20203;-85
2022/11/27 09:23:01;;;;;;;9.27;5.57;;;;;;;5.34;93.26;101685.72;5073454;28;20204;-85
2022/11/27 09:25:31;;;;;;;7.80;5.37;;;;;;;5.42;93.34;101678.47;5073028;28;20221;-86
2022/11/27 09:28:05;;;;;;;9.57;5.63;;;;;;;5.51;93.36;101680.00;5068132;28;20201;-83
2022/11/27 09:30:32;;;;;;;7.93;5.60;;;;;;;5.59;93.12;101670.97;5070009;28;20207;-81
2022/11/27 09:33:00;;;;;;;11.83;5.87;;;;;;;5.70;92.68;101668.06;5065084;28;20203;-81
2022/11/27 09:35:27;;;;;;;8.33;5.70;;;;;;;5.77;92.46;101659.03;5074999;28;20268;-83
2022/11/27 09:37:53;;;;;;;8.07;5.70;;;;;;;5.85;92.91;101656.19;5072301;28;20207;-82
2022/11/27 09:40:20;;;;;;;8.67;5.27;;;;;;;5.94;92.46;101655.94;5067350;28;20264;-82
2022/11/27 09:42:53;;;;;;;9.63;6.27;;;;;;;6.00;92.27;101647.84;5072456;28;20197;-82
2022/11/27 09:45:22;;;;;;;7.67;4.13;;;;;;;6.08;91.31;101652.94;5070565;28;20232;-83
2022/11/27 09:47:58;;;;;;;9.07;5.33;;;;;;;6.10;90.29;101657.25;5069553;28;20275;-82
2022/11/27 09:50:28;;;;;;;9.33;6.80;;;;;;;6.10;90.06;101662.53;5071602;28;20220;-82
2022/11/27 09:52:59;;;;;;;10.80;5.57;;;;;;;6.12;89.40;101666.00;5073019;28;20216;-83
2022/11/27 09:55:36;;;;;;;8.87;4.73;;;;;;;6.14;88.96;101658.88;5070744;28;20251;-82
2022/11/27 09:58:18;;;;;;;7.70;4.67;;;;;;;6.16;88.43;101659.72;5065331;28;20215;-83
2022/11/27 10:00:45;;;;;;;6.83;4.63;;;;;;;6.20;88.00;101664.00;5067336;28;20208;-83
2022/11/27 10:03:14;;;;;;;8.77;4.37;;;;;;;6.27;87.61;101651.44;5075833;28;20269;-84
2022/11/27 10:05:47;;;;;;;6.93;4.40;;;;;;;6.33;87.51;101653.06;5078814;28;20247;-83
2022/11/27 10:08:32;;;;;;;9.17;5.23;;;;;;;6.41;87.70;101651.94;5070596;28;20221;-83
2022/11/27 10:11:11;;;;;;;9.47;5.03;;;;;;;6.46;87.50;101655.28;5075874;28;20297;-83
2022/11/27 10:13:55;;;;;;;7.40;5.07;;;;;;;6.54;87.24;101640.06;5074124;28;20223;-83
2022/11/27 10:16:30;;;;;;;7.30;4.70;;;;;;;6.57;86.99;101647.91;5076582;28;20197;-83
2022/11/27 10:19:04;;;;;;;9.43;4.53;;;;;;;6.59;86.30;101647.84;5079212;28;20265;-83
2022/11/27 10:21:41;;;;;;;10.90;4.67;;;;;;;6.62;86.30;101647.78;5081916;28;20205;-83
2022/11/27 10:24:17;;;;;;;6.30;4.37;;;;;;;6.67;86.11;101635.22;5082120;28;20299;-84
2022/11/27 10:26:47;;;;;;;8.10;4.90;;;;;;;6.65;85.57;101623.81;5077311;28;20416;-84
2022/11/27 10:29:30;;;;;;;7.37;3.80;;;;;;;6.66;85.34;101609.66;5073225;28;20566;-84
2022/11/27 10:32:01;;;;;;;6.57;4.27;;;;;;;6.71;84.55;101607.75;5079482;28;20197;-83
2022/11/27 10:34:37;;;;;;;7.63;3.83;;;;;;;6.74;83.22;101593.56;5077257;28;20221;-83
2022/11/27 10:37:08;;;;;;;7.10;4.17;;;;;;;6.78;82.81;101587.25;5074324;28;20188;-84
2022/11/27 10:39:40;;;;;;;11.97;5.10;;;;;;;6.78;83.13;101585.47;5076138;28;20417;-84
2022/11/27 10:42:10;;;;;;;7.13;3.93;;;;;;;6.79;83.05;101581.03;5074766;28;20201;-83
2022/11/27 10:44:43;;;;;;;6.27;3.80;;;;;;;6.80;81.77;101575.69;5076108;28;20231;-82
2022/11/27 10:47:12;;;;;;;6.40;4.27;;;;;;;6.83;82.02;101582.66;5072316;28;20280;-82
2022/11/27 10:49:40;;;;;;;10.23;3.93;;;;;;;6.83;82.51;101580.00;5071514;28;20307;-82
2022/11/27 10:52:12;;;;;;;5.40;3.83;;;;;;;6.85;82.11;101586.13;5078402;28;20691;-82
2022/11/27 10:54:40;;;;;;;6.80;3.63;;;;;;;6.90;81.80;101582.41;5074866;28;20244;-82
2022/11/27 10:57:43;;;;;;;6.10;4.80;;;;;;;6.90;81.84;101584.19;5071956;28;20220;-84
2022/11/27 11:00:15;;;;;;;6.30;4.07;;;;;;;6.94;81.22;101564.66;5078383;28;20224;-84
2022/11/27 11:02:41;;;;;;;6.33;3.87;;;;;;;6.98;81.04;101568.94;5075046;28;20211;-84
2022/11/27 11:05:23;;;;;;;8.53;4.07;;;;;;;7.01;80.14;101555.56;5076449;28;20234;-83
2022/11/27 11:07:56;;;;;;;6.30;3.63;;;;;;;7.00;79.44;101566.19;5071309;28;20615;-84
2022/11/27 11:10:26;;;;;;;7.47;3.90;;;;;;;7.03;79.33;101571.38;5075984;28;20198;-84
2022/11/27 11:13:14;;;;;;;5.20;3.73;;;;;;;7.05;80.19;101566.91;5072221;28;20209;-83
2022/11/27 11:15:54;;;;;;;6.23;3.40;;;;;;;7.06;79.86;101566.00;5073327;28;20201;-83
2022/11/27 11:18:22;;;;;;;7.57;3.63;;;;;;;7.07;79.41;101565.09;5073194;28;20672;-84
2022/11/27 11:20:51;;;;;;;7.07;3.73;;;;;;;7.09;79.74;101566.75;5080273;28;20221;-84
2022/11/27 11:23:25;;;;;;;5.03;3.70;;;;;;;7.11;79.33;101561.41;5079215;28;20204;-84
2022/11/27 11:25:54;;;;;;;7.60;4.40;;;;;;;7.14;79.52;101567.47;5079236;28;20193;-84
2022/11/27 11:28:22;;;;;;;5.53;3.63;;;;;;;7.18;78.73;101558.47;5077329;28;20215;-84
2022/11/27 11:31:01;;;;;;;7.10;3.97;;;;;;;7.21;78.47;101555.72;5075537;28;20227;-84
2022/11/27 11:33:28;;;;;;;6.87;3.73;;;;;;;7.21;79.02;101549.56;5064822;28;20196;-84